sensor_id;sensor_type;location;lat;lon;timestamp;P1;durP1;ratioP1;P2;durP2;ratioP2
76194;SDS011;64964;48.694;21.206;2023-10-08T00:02:22;9.47;;;3.77;;
76194;SDS011;64964;48.694;21.206;2023-10-08T00:04:50;6.57;;;3.33;;
76194;SDS011;64964;48.694;21.206;2023-10-08T00:07:19;7.57;;;3.50;;
76194;SDS011;64964;48.694;21.206;2023-10-08T00:09:46;6.32;;;3.38;;
76194;SDS011;64964;48.694;21.206;2023-10-08T00:12:16;5.68;;;3.13;;
76194;SDS011;64964;48.694;21.206;2023-10-08T00:14:42;6.87;;;3.43;;
76194;SDS011;64964;48.694;21.206;2023-10-08T00:17:14;7.78;;;3.50;;
76194;SDS011;64964;48.694;21.206;2023-10-08T00:19:40;10.70;;;3.60;;
76194;SDS011;64964;48.694;21.206;2023-10-08T00:22:07;7.35;;;3.33;;
76194;SDS011;64964;48.694;21.206;2023-10-08T00:24:34;9.73;;;3.80;;
76194;SDS011;64964;48.694;21.206;2023-10-08T00:26:59;7.30;;;3.35;;
76194;SDS011;64964;48.694;21.206;2023-10-08T00:29:25;7.80;;;3.40;;
76194;SDS011;64964;48.694;21.206;2023-10-08T00:31:51;6.35;;;3.10;;
76194;SDS011;64964;48.694;21.206;2023-10-08T00:34:17;6.13;;;3.40;;
76194;SDS011;64964;48.694;21.206;2023-10-08T00:36:45;8.93;;;3.28;;
76194;SDS011;64964;48.694;21.206;2023-10-08T00:39:12;7.78;;;3.30;;
76194;SDS011;64964;48.694;21.206;2023-10-08T00:41:40;9.63;;;3.72;;
76194;SDS011;64964;48.694;21.206;2023-10-08T00:44:11;6.85;;;3.20;;
76194;SDS011;64964;48.694;21.206;2023-10-08T00:46:48;7.60;;;3.27;;
76194;SDS011;64964;48.694;21.206;2023-10-08T00:49:21;8.00;;;3.47;;
76194;SDS011;64964;48.694;21.206;2023-10-08T00:51:54;8.13;;;3.25;;
76194;SDS011;64964;48.694;21.206;2023-10-08T00:54:44;6.65;;;3.38;;
76194;SDS011;64964;48.694;21.206;2023-10-08T00:57:16;6.40;;;3.47;;
76194;SDS011;64964;48.694;21.206;2023-10-08T00:59:45;6.57;;;3.10;;
76194;SDS011;64964;48.694;21.206;2023-10-08T01:02:17;8.50;;;3.33;;
76194;SDS011;64964;48.694;21.206;2023-10-08T01:04:46;6.90;;;3.17;;
76194;SDS011;64964;48.694;21.206;2023-10-08T01:07:12;10.20;;;3.40;;
76194;SDS011;64964;48.694;21.206;2023-10-08T01:09:43;9.40;;;3.40;;
76194;SDS011;64964;48.694;21.206;2023-10-08T01:12:19;9.35;;;3.70;;
76194;SDS011;64964;48.694;21.206;2023-10-08T01:15:01;6.72;;;3.40;;
76194;SDS011;64964;48.694;21.206;2023-10-08T01:17:41;8.38;;;3.58;;
76194;SDS011;64964;48.694;21.206;2023-10-08T01:20:19;6.70;;;3.40;;
76194;SDS011;64964;48.694;21.206;2023-10-08T01:22:57;7.93;;;3.63;;
76194;SDS011;64964;48.694;21.206;2023-10-08T01:25:23;8.60;;;3.33;;
76194;SDS011;64964;48.694;21.206;2023-10-08T01:27:54;8.35;;;3.55;;
76194;SDS011;64964;48.694;21.206;2023-10-08T01:30:20;8.63;;;3.30;;
76194;SDS011;64964;48.694;21.206;2023-10-08T01:32:46;9.57;;;3.47;;
76194;SDS011;64964;48.694;21.206;2023-10-08T01:35:11;6.65;;;3.45;;
76194;SDS011;64964;48.694;21.206;2023-10-08T01:37:48;9.47;;;3.50;;
76194;SDS011;64964;48.694;21.206;2023-10-08T01:40:15;7.32;;;3.35;;
76194;SDS011;64964;48.694;21.206;2023-10-08T01:42:41;6.85;;;3.17;;
76194;SDS011;64964;48.694;21.206;2023-10-08T01:45:07;5.13;;;3.10;;
76194;SDS011;64964;48.694;21.206;2023-10-08T01:47:35;6.45;;;3.10;;
76194;SDS011;64964;48.694;21.206;2023-10-08T01:50:01;6.28;;;2.92;;
76194;SDS011;64964;48.694;21.206;2023-10-08T01:52:30;6.28;;;3.13;;
76194;SDS011;64964;48.694;21.206;2023-10-08T01:54:56;6.37;;;3.23;;
76194;SDS011;64964;48.694;21.206;2023-10-08T01:57:22;6.15;;;2.80;;
76194;SDS011;64964;48.694;21.206;2023-10-08T01:59:47;6.00;;;2.87;;
76194;SDS011;64964;48.694;21.206;2023-10-08T02:02:13;4.97;;;2.92;;
76194;SDS011;64964;48.694;21.206;2023-10-08T02:04:40;8.07;;;3.40;;
76194;SDS011;64964;48.694;21.206;2023-10-08T02:07:06;6.63;;;2.80;;
76194;SDS011;64964;48.694;21.206;2023-10-08T02:09:40;6.77;;;3.57;;
76194;SDS011;64964;48.694;21.206;2023-10-08T02:12:06;6.55;;;3.17;;
76194;SDS011;64964;48.694;21.206;2023-10-08T02:14:31;6.60;;;3.17;;
76194;SDS011;64964;48.694;21.206;2023-10-08T02:17:00;6.67;;;3.20;;
76194;SDS011;64964;48.694;21.206;2023-10-08T02:19:31;6.68;;;3.20;;
76194;SDS011;64964;48.694;21.206;2023-10-08T02:21:56;8.93;;;3.60;;
76194;SDS011;64964;48.694;21.206;2023-10-08T02:24:23;6.25;;;2.97;;
76194;SDS011;64964;48.694;21.206;2023-10-08T02:26:52;7.05;;;3.25;;
76194;SDS011;64964;48.694;21.206;2023-10-08T02:29:24;6.77;;;3.53;;
76194;SDS011;64964;48.694;21.206;2023-10-08T02:31:51;10.48;;;3.65;;
76194;SDS011;64964;48.694;21.206;2023-10-08T02:34:19;6.43;;;3.72;;
76194;SDS011;64964;48.694;21.206;2023-10-08T02:36:44;9.30;;;3.20;;
76194;SDS011;64964;48.694;21.206;2023-10-08T02:39:12;5.90;;;3.38;;
76194;SDS011;64964;48.694;21.206;2023-10-08T02:41:50;7.88;;;3.30;;
76194;SDS011;64964;48.694;21.206;2023-10-08T02:44:16;7.35;;;3.28;;
76194;SDS011;64964;48.694;21.206;2023-10-08T02:46:42;10.30;;;3.40;;
76194;SDS011;64964;48.694;21.206;2023-10-08T02:49:13;6.63;;;3.25;;
76194;SDS011;64964;48.694;21.206;2023-10-08T02:51:45;9.95;;;3.28;;
76194;SDS011;64964;48.694;21.206;2023-10-08T02:54:10;7.32;;;3.67;;
76194;SDS011;64964;48.694;21.206;2023-10-08T02:56:49;8.53;;;3.23;;
76194;SDS011;64964;48.694;21.206;2023-10-08T02:59:17;8.02;;;3.10;;
76194;SDS011;64964;48.694;21.206;2023-10-08T03:01:43;6.55;;;3.40;;
76194;SDS011;64964;48.694;21.206;2023-10-08T03:04:09;9.40;;;3.00;;
76194;SDS011;64964;48.694;21.206;2023-10-08T03:06:45;8.82;;;3.20;;
76194;SDS011;64964;48.694;21.206;2023-10-08T03:09:14;7.22;;;3.20;;
76194;SDS011;64964;48.694;21.206;2023-10-08T03:11:45;5.28;;;2.90;;
76194;SDS011;64964;48.694;21.206;2023-10-08T03:14:12;7.05;;;2.95;;
76194;SDS011;64964;48.694;21.206;2023-10-08T03:16:40;5.47;;;3.10;;
76194;SDS011;64964;48.694;21.206;2023-10-08T03:19:06;6.40;;;3.25;;
76194;SDS011;64964;48.694;21.206;2023-10-08T03:21:31;6.20;;;3.10;;
76194;SDS011;64964;48.694;21.206;2023-10-08T03:24:03;6.43;;;3.13;;
76194;SDS011;64964;48.694;21.206;2023-10-08T03:26:37;7.32;;;3.30;;
76194;SDS011;64964;48.694;21.206;2023-10-08T03:29:04;6.88;;;3.30;;
76194;SDS011;64964;48.694;21.206;2023-10-08T03:31:39;8.25;;;3.17;;
76194;SDS011;64964;48.694;21.206;2023-10-08T03:34:11;8.85;;;3.30;;
76194;SDS011;64964;48.694;21.206;2023-10-08T03:36:43;5.50;;;2.80;;
76194;SDS011;64964;48.694;21.206;2023-10-08T03:39:13;6.28;;;3.05;;
76194;SDS011;64964;48.694;21.206;2023-10-08T03:41:42;7.28;;;3.20;;
76194;SDS011;64964;48.694;21.206;2023-10-08T03:44:16;7.97;;;3.10;;
76194;SDS011;64964;48.694;21.206;2023-10-08T03:46:43;6.65;;;3.25;;
76194;SDS011;64964;48.694;21.206;2023-10-08T03:49:09;7.30;;;3.17;;
76194;SDS011;64964;48.694;21.206;2023-10-08T03:51:52;6.43;;;3.10;;
76194;SDS011;64964;48.694;21.206;2023-10-08T03:54:18;8.40;;;3.80;;
76194;SDS011;64964;48.694;21.206;2023-10-08T03:56:46;7.28;;;3.10;;
76194;SDS011;64964;48.694;21.206;2023-10-08T03:59:16;5.60;;;3.03;;
76194;SDS011;64964;48.694;21.206;2023-10-08T04:01:53;5.80;;;3.27;;
76194;SDS011;64964;48.694;21.206;2023-10-08T04:04:20;6.60;;;2.83;;
76194;SDS011;64964;48.694;21.206;2023-10-08T04:06:49;7.50;;;3.25;;
76194;SDS011;64964;48.694;21.206;2023-10-08T04:09:16;8.02;;;3.05;;
76194;SDS011;64964;48.694;21.206;2023-10-08T04:11:45;5.88;;;3.30;;
76194;SDS011;64964;48.694;21.206;2023-10-08T04:14:19;9.37;;;4.23;;
76194;SDS011;64964;48.694;21.206;2023-10-08T04:16:49;12.15;;;5.18;;
76194;SDS011;64964;48.694;21.206;2023-10-08T04:19:18;9.95;;;3.63;;
76194;SDS011;64964;48.694;21.206;2023-10-08T04:21:46;12.80;;;5.80;;
76194;SDS011;64964;48.694;21.206;2023-10-08T04:24:19;7.53;;;3.40;;
76194;SDS011;64964;48.694;21.206;2023-10-08T04:26:46;9.67;;;3.20;;
76194;SDS011;64964;48.694;21.206;2023-10-08T04:29:11;6.47;;;3.13;;
76194;SDS011;64964;48.694;21.206;2023-10-08T04:31:41;6.07;;;3.10;;
76194;SDS011;64964;48.694;21.206;2023-10-08T04:34:12;7.20;;;3.70;;
76194;SDS011;64964;48.694;21.206;2023-10-08T04:36:47;8.82;;;3.72;;
76194;SDS011;64964;48.694;21.206;2023-10-08T04:39:19;9.65;;;3.70;;
76194;SDS011;64964;48.694;21.206;2023-10-08T04:41:51;7.03;;;3.40;;
76194;SDS011;64964;48.694;21.206;2023-10-08T04:44:19;6.85;;;3.50;;
76194;SDS011;64964;48.694;21.206;2023-10-08T04:46:47;8.53;;;3.47;;
76194;SDS011;64964;48.694;21.206;2023-10-08T04:49:15;8.68;;;3.88;;
76194;SDS011;64964;48.694;21.206;2023-10-08T04:51:56;6.93;;;3.28;;
76194;SDS011;64964;48.694;21.206;2023-10-08T04:54:26;8.27;;;3.17;;
76194;SDS011;64964;48.694;21.206;2023-10-08T04:56:56;7.13;;;3.30;;
76194;SDS011;64964;48.694;21.206;2023-10-08T04:59:26;7.00;;;3.00;;
76194;SDS011;64964;48.694;21.206;2023-10-08T05:02:00;6.55;;;2.83;;
76194;SDS011;64964;48.694;21.206;2023-10-08T05:04:54;6.85;;;3.17;;
76194;SDS011;64964;48.694;21.206;2023-10-08T05:07:47;10.05;;;3.53;;
76194;SDS011;64964;48.694;21.206;2023-10-08T05:10:13;7.55;;;2.90;;
76194;SDS011;64964;48.694;21.206;2023-10-08T05:12:49;7.20;;;3.20;;
76194;SDS011;64964;48.694;21.206;2023-10-08T05:15:30;7.20;;;2.75;;
76194;SDS011;64964;48.694;21.206;2023-10-08T05:18:02;10.25;;;2.70;;
76194;SDS011;64964;48.694;21.206;2023-10-08T05:20:39;5.82;;;2.70;;
76194;SDS011;64964;48.694;21.206;2023-10-08T05:23:23;9.63;;;3.17;;
76194;SDS011;64964;48.694;21.206;2023-10-08T05:25:49;6.37;;;2.70;;
76194;SDS011;64964;48.694;21.206;2023-10-08T05:28:30;5.03;;;2.85;;
76194;SDS011;64964;48.694;21.206;2023-10-08T05:31:06;6.60;;;3.20;;
76194;SDS011;64964;48.694;21.206;2023-10-08T05:33:41;6.53;;;2.80;;
76194;SDS011;64964;48.694;21.206;2023-10-08T05:36:26;7.72;;;3.05;;
76194;SDS011;64964;48.694;21.206;2023-10-08T05:39:04;7.65;;;3.00;;
76194;SDS011;64964;48.694;21.206;2023-10-08T05:42:04;7.95;;;2.95;;
76194;SDS011;64964;48.694;21.206;2023-10-08T05:44:41;7.17;;;3.30;;
76194;SDS011;64964;48.694;21.206;2023-10-08T05:47:25;5.88;;;2.67;;
76194;SDS011;64964;48.694;21.206;2023-10-08T05:50:03;6.90;;;2.90;;
76194;SDS011;64964;48.694;21.206;2023-10-08T05:52:56;6.85;;;2.90;;
76194;SDS011;64964;48.694;21.206;2023-10-08T05:55:21;4.40;;;2.23;;
76194;SDS011;64964;48.694;21.206;2023-10-08T05:57:49;6.63;;;2.60;;
76194;SDS011;64964;48.694;21.206;2023-10-08T06:00:17;8.23;;;2.85;;
76194;SDS011;64964;48.694;21.206;2023-10-08T06:03:03;10.03;;;3.77;;
76194;SDS011;64964;48.694;21.206;2023-10-08T06:05:35;8.82;;;4.10;;
76194;SDS011;64964;48.694;21.206;2023-10-08T06:08:08;15.07;;;4.10;;
76194;SDS011;64964;48.694;21.206;2023-10-08T06:10:39;8.32;;;3.72;;
76194;SDS011;64964;48.694;21.206;2023-10-08T06:13:11;7.37;;;3.83;;
76194;SDS011;64964;48.694;21.206;2023-10-08T06:16:10;7.47;;;4.30;;
76194;SDS011;64964;48.694;21.206;2023-10-08T06:18:38;8.88;;;3.40;;
76194;SDS011;64964;48.694;21.206;2023-10-08T06:21:05;6.67;;;2.80;;
76194;SDS011;64964;48.694;21.206;2023-10-08T06:23:35;5.95;;;2.20;;
76194;SDS011;64964;48.694;21.206;2023-10-08T06:26:03;3.87;;;1.70;;
76194;SDS011;64964;48.694;21.206;2023-10-08T06:28:35;2.45;;;1.30;;
76194;SDS011;64964;48.694;21.206;2023-10-08T06:31:02;3.63;;;0.70;;
76194;SDS011;64964;48.694;21.206;2023-10-08T06:33:31;1.38;;;0.70;;
76194;SDS011;64964;48.694;21.206;2023-10-08T06:35:58;0.60;;;0.60;;
76194;SDS011;64964;48.694;21.206;2023-10-08T06:38:31;0.40;;;0.40;;
76194;SDS011;64964;48.694;21.206;2023-10-08T06:41:01;0.50;;;0.50;;
76194;SDS011;64964;48.694;21.206;2023-10-08T06:43:50;0.52;;;0.35;;
76194;SDS011;64964;48.694;21.206;2023-10-08T06:46:27;0.52;;;0.40;;
76194;SDS011;64964;48.694;21.206;2023-10-08T06:48:57;0.40;;;0.40;;
76194;SDS011;64964;48.694;21.206;2023-10-08T06:51:28;0.50;;;0.40;;
76194;SDS011;64964;48.694;21.206;2023-10-08T06:53:55;0.45;;;0.45;;
76194;SDS011;64964;48.694;21.206;2023-10-08T06:56:24;0.47;;;0.47;;
76194;SDS011;64964;48.694;21.206;2023-10-08T06:58:49;0.40;;;0.40;;
76194;SDS011;64964;48.694;21.206;2023-10-08T07:01:19;0.63;;;0.50;;
76194;SDS011;64964;48.694;21.206;2023-10-08T07:03:53;0.40;;;0.40;;
76194;SDS011;64964;48.694;21.206;2023-10-08T07:06:28;0.40;;;0.40;;
76194;SDS011;64964;48.694;21.206;2023-10-08T07:08:57;0.40;;;0.40;;
76194;SDS011;64964;48.694;21.206;2023-10-08T07:11:24;0.57;;;0.40;;
76194;SDS011;64964;48.694;21.206;2023-10-08T07:13:52;0.55;;;0.40;;
76194;SDS011;64964;48.694;21.206;2023-10-08T07:16:18;0.73;;;0.50;;
76194;SDS011;64964;48.694;21.206;2023-10-08T07:18:44;0.50;;;0.50;;
76194;SDS011;64964;48.694;21.206;2023-10-08T07:21:17;0.60;;;0.43;;
76194;SDS011;64964;48.694;21.206;2023-10-08T07:23:43;0.50;;;0.50;;
76194;SDS011;64964;48.694;21.206;2023-10-08T07:26:29;0.40;;;0.40;;
76194;SDS011;64964;48.694;21.206;2023-10-08T07:29:01;1.17;;;0.40;;
76194;SDS011;64964;48.694;21.206;2023-10-08T07:31:33;0.37;;;0.37;;
76194;SDS011;64964;48.694;21.206;2023-10-08T07:34:01;4.70;;;0.50;;
76194;SDS011;64964;48.694;21.206;2023-10-08T07:36:41;0.85;;;0.40;;
76194;SDS011;64964;48.694;21.206;2023-10-08T07:39:08;1.23;;;0.38;;
76194;SDS011;64964;48.694;21.206;2023-10-08T07:41:45;0.38;;;0.38;;
76194;SDS011;64964;48.694;21.206;2023-10-08T07:44:12;0.77;;;0.40;;
76194;SDS011;64964;48.694;21.206;2023-10-08T07:46:37;0.30;;;0.30;;
76194;SDS011;64964;48.694;21.206;2023-10-08T07:49:03;0.40;;;0.40;;
76194;SDS011;64964;48.694;21.206;2023-10-08T07:51:29;0.40;;;0.30;;
76194;SDS011;64964;48.694;21.206;2023-10-08T07:53:54;0.50;;;0.50;;
76194;SDS011;64964;48.694;21.206;2023-10-08T07:56:21;0.40;;;0.40;;
76194;SDS011;64964;48.694;21.206;2023-10-08T07:58:47;0.60;;;0.50;;
76194;SDS011;64964;48.694;21.206;2023-10-08T08:01:13;0.50;;;0.50;;
76194;SDS011;64964;48.694;21.206;2023-10-08T08:03:39;0.40;;;0.40;;
76194;SDS011;64964;48.694;21.206;2023-10-08T08:06:06;0.43;;;0.43;;
76194;SDS011;64964;48.694;21.206;2023-10-08T08:08:34;0.45;;;0.40;;
76194;SDS011;64964;48.694;21.206;2023-10-08T08:11:01;0.40;;;0.40;;
76194;SDS011;64964;48.694;21.206;2023-10-08T08:13:35;0.38;;;0.38;;
76194;SDS011;64964;48.694;21.206;2023-10-08T08:16:01;0.50;;;0.50;;
76194;SDS011;64964;48.694;21.206;2023-10-08T08:18:37;0.47;;;0.47;;
76194;SDS011;64964;48.694;21.206;2023-10-08T08:21:03;0.50;;;0.50;;
76194;SDS011;64964;48.694;21.206;2023-10-08T08:23:30;0.50;;;0.45;;
76194;SDS011;64964;48.694;21.206;2023-10-08T08:25:56;0.50;;;0.50;;
76194;SDS011;64964;48.694;21.206;2023-10-08T08:28:36;0.57;;;0.40;;
76194;SDS011;64964;48.694;21.206;2023-10-08T08:31:05;0.40;;;0.40;;
76194;SDS011;64964;48.694;21.206;2023-10-08T08:33:39;0.30;;;0.30;;
76194;SDS011;64964;48.694;21.206;2023-10-08T08:36:29;0.90;;;0.45;;
76194;SDS011;64964;48.694;21.206;2023-10-08T08:38:57;0.40;;;0.40;;
76194;SDS011;64964;48.694;21.206;2023-10-08T08:41:22;0.50;;;0.50;;
76194;SDS011;64964;48.694;21.206;2023-10-08T08:43:51;0.70;;;0.60;;
76194;SDS011;64964;48.694;21.206;2023-10-08T08:49:01;0.95;;;0.50;;
76194;SDS011;64964;48.694;21.206;2023-10-08T08:51:29;0.60;;;0.50;;
76194;SDS011;64964;48.694;21.206;2023-10-08T08:53:55;1.50;;;0.52;;
76194;SDS011;64964;48.694;21.206;2023-10-08T08:56:20;0.40;;;0.40;;
76194;SDS011;64964;48.694;21.206;2023-10-08T08:58:47;0.60;;;0.60;;
76194;SDS011;64964;48.694;21.206;2023-10-08T09:01:14;1.03;;;0.80;;
76194;SDS011;64964;48.694;21.206;2023-10-08T09:03:42;0.68;;;0.50;;
76194;SDS011;64964;48.694;21.206;2023-10-08T09:06:08;0.60;;;0.60;;
76194;SDS011;64964;48.694;21.206;2023-10-08T09:08:36;4.23;;;1.90;;
76194;SDS011;64964;48.694;21.206;2023-10-08T09:11:06;1.83;;;1.10;;
76194;SDS011;64964;48.694;21.206;2023-10-08T09:13:33;6.07;;;2.67;;
76194;SDS011;64964;48.694;21.206;2023-10-08T09:16:17;8.20;;;3.00;;
76194;SDS011;64964;48.694;21.206;2023-10-08T09:18:49;8.80;;;2.78;;
76194;SDS011;64964;48.694;21.206;2023-10-08T09:21:15;1.15;;;0.90;;
76194;SDS011;64964;48.694;21.206;2023-10-08T09:23:44;1.45;;;0.73;;
76194;SDS011;64964;48.694;21.206;2023-10-08T09:26:18;1.38;;;1.00;;
76194;SDS011;64964;48.694;21.206;2023-10-08T09:28:48;1.77;;;0.90;;
76194;SDS011;64964;48.694;21.206;2023-10-08T09:31:14;1.40;;;0.75;;
76194;SDS011;64964;48.694;21.206;2023-10-08T09:33:42;1.23;;;0.60;;
76194;SDS011;64964;48.694;21.206;2023-10-08T09:36:09;3.45;;;0.70;;
76194;SDS011;64964;48.694;21.206;2023-10-08T09:38:43;2.63;;;0.68;;
76194;SDS011;64964;48.694;21.206;2023-10-08T09:41:10;0.77;;;0.50;;
76194;SDS011;64964;48.694;21.206;2023-10-08T09:43:37;2.85;;;1.10;;
76194;SDS011;64964;48.694;21.206;2023-10-08T09:46:08;2.03;;;0.70;;
76194;SDS011;64964;48.694;21.206;2023-10-08T09:48:41;0.60;;;0.60;;
76194;SDS011;64964;48.694;21.206;2023-10-08T09:51:10;1.27;;;0.60;;
76194;SDS011;64964;48.694;21.206;2023-10-08T09:56:35;0.45;;;0.40;;
76194;SDS011;64964;48.694;21.206;2023-10-08T09:59:02;0.57;;;0.52;;
76194;SDS011;64964;48.694;21.206;2023-10-08T10:01:28;1.02;;;0.63;;
76194;SDS011;64964;48.694;21.206;2023-10-08T10:03:57;0.60;;;0.40;;
76194;SDS011;64964;48.694;21.206;2023-10-08T10:06:25;0.40;;;0.40;;
76194;SDS011;64964;48.694;21.206;2023-10-08T10:08:52;0.60;;;0.60;;
76194;SDS011;64964;48.694;21.206;2023-10-08T10:11:25;0.57;;;0.50;;
76194;SDS011;64964;48.694;21.206;2023-10-08T10:13:57;0.73;;;0.70;;
76194;SDS011;64964;48.694;21.206;2023-10-08T10:16:26;1.70;;;0.55;;
76194;SDS011;64964;48.694;21.206;2023-10-08T10:18:56;0.70;;;0.60;;
76194;SDS011;64964;48.694;21.206;2023-10-08T10:21:26;2.33;;;0.73;;
76194;SDS011;64964;48.694;21.206;2023-10-08T10:23:54;1.17;;;0.75;;
76194;SDS011;64964;48.694;21.206;2023-10-08T10:26:34;2.63;;;1.50;;
76194;SDS011;64964;48.694;21.206;2023-10-08T10:31:42;1.35;;;0.70;;
76194;SDS011;64964;48.694;21.206;2023-10-08T10:34:15;0.82;;;0.73;;
76194;SDS011;64964;48.694;21.206;2023-10-08T10:36:45;1.30;;;0.90;;
76194;SDS011;64964;48.694;21.206;2023-10-08T10:39:20;1.77;;;1.00;;
76194;SDS011;64964;48.694;21.206;2023-10-08T10:41:59;1.25;;;1.00;;
76194;SDS011;64964;48.694;21.206;2023-10-08T10:44:29;1.75;;;1.13;;
76194;SDS011;64964;48.694;21.206;2023-10-08T10:46:55;1.65;;;1.00;;
76194;SDS011;64964;48.694;21.206;2023-10-08T10:49:40;3.60;;;1.00;;
76194;SDS011;64964;48.694;21.206;2023-10-08T10:52:24;2.20;;;1.10;;
76194;SDS011;64964;48.694;21.206;2023-10-08T10:54:59;1.80;;;0.95;;
76194;SDS011;64964;48.694;21.206;2023-10-08T10:57:54;2.13;;;1.38;;
76194;SDS011;64964;48.694;21.206;2023-10-08T11:00:28;1.60;;;1.20;;
76194;SDS011;64964;48.694;21.206;2023-10-08T11:02:57;1.85;;;1.20;;
76194;SDS011;64964;48.694;21.206;2023-10-08T11:05:28;2.30;;;1.43;;
76194;SDS011;64964;48.694;21.206;2023-10-08T11:07:55;1.70;;;1.20;;
76194;SDS011;64964;48.694;21.206;2023-10-08T11:10:36;2.00;;;1.25;;
76194;SDS011;64964;48.694;21.206;2023-10-08T11:13:11;2.85;;;1.55;;
76194;SDS011;64964;48.694;21.206;2023-10-08T11:15:43;2.53;;;1.30;;
76194;SDS011;64964;48.694;21.206;2023-10-08T11:18:14;1.80;;;1.35;;
76194;SDS011;64964;48.694;21.206;2023-10-08T11:20:48;1.90;;;1.40;;
76194;SDS011;64964;48.694;21.206;2023-10-08T11:23:32;2.93;;;1.67;;
76194;SDS011;64964;48.694;21.206;2023-10-08T11:26:00;2.38;;;1.40;;
76194;SDS011;64964;48.694;21.206;2023-10-08T11:28:35;3.97;;;1.55;;
76194;SDS011;64964;48.694;21.206;2023-10-08T11:31:07;3.17;;;1.50;;
76194;SDS011;64964;48.694;21.206;2023-10-08T11:33:37;2.97;;;1.75;;
76194;SDS011;64964;48.694;21.206;2023-10-08T11:36:04;2.67;;;1.53;;
76194;SDS011;64964;48.694;21.206;2023-10-08T11:38:43;4.00;;;1.33;;
76194;SDS011;64964;48.694;21.206;2023-10-08T11:41:16;2.10;;;1.52;;
76194;SDS011;64964;48.694;21.206;2023-10-08T11:43:51;2.72;;;1.50;;
76194;SDS011;64964;48.694;21.206;2023-10-08T11:46:24;2.38;;;1.45;;
76194;SDS011;64964;48.694;21.206;2023-10-08T11:49:05;2.27;;;1.43;;
76194;SDS011;64964;48.694;21.206;2023-10-08T11:51:34;1.90;;;1.50;;
76194;SDS011;64964;48.694;21.206;2023-10-08T11:54:01;2.42;;;1.73;;
76194;SDS011;64964;48.694;21.206;2023-10-08T11:56:30;3.13;;;1.50;;
76194;SDS011;64964;48.694;21.206;2023-10-08T11:58:57;3.22;;;1.48;;
76194;SDS011;64964;48.694;21.206;2023-10-08T12:01:25;3.13;;;1.50;;
76194;SDS011;64964;48.694;21.206;2023-10-08T12:03:52;1.80;;;1.40;;
76194;SDS011;64964;48.694;21.206;2023-10-08T12:06:22;3.13;;;1.50;;
76194;SDS011;64964;48.694;21.206;2023-10-08T12:08:49;2.33;;;1.50;;
76194;SDS011;64964;48.694;21.206;2023-10-08T12:11:18;2.42;;;1.40;;
76194;SDS011;64964;48.694;21.206;2023-10-08T12:13:44;4.07;;;1.42;;
76194;SDS011;64964;48.694;21.206;2023-10-08T12:16:18;5.27;;;1.80;;
76194;SDS011;64964;48.694;21.206;2023-10-08T12:18:46;2.95;;;1.60;;
76194;SDS011;64964;48.694;21.206;2023-10-08T12:21:14;2.55;;;1.80;;
76194;SDS011;64964;48.694;21.206;2023-10-08T12:23:40;2.08;;;1.50;;
76194;SDS011;64964;48.694;21.206;2023-10-08T12:26:11;3.33;;;1.50;;
76194;SDS011;64964;48.694;21.206;2023-10-08T12:28:41;4.17;;;1.60;;
76194;SDS011;64964;48.694;21.206;2023-10-08T12:31:13;3.00;;;1.50;;
76194;SDS011;64964;48.694;21.206;2023-10-08T12:33:40;2.25;;;1.55;;
76194;SDS011;64964;48.694;21.206;2023-10-08T12:36:08;3.85;;;1.60;;
76194;SDS011;64964;48.694;21.206;2023-10-08T12:38:37;2.67;;;1.60;;
76194;SDS011;64964;48.694;21.206;2023-10-08T12:41:10;2.70;;;1.53;;
76194;SDS011;64964;48.694;21.206;2023-10-08T12:43:39;3.88;;;1.50;;
76194;SDS011;64964;48.694;21.206;2023-10-08T12:46:08;1.70;;;1.30;;
76194;SDS011;64964;48.694;21.206;2023-10-08T12:48:44;2.72;;;1.42;;
76194;SDS011;64964;48.694;21.206;2023-10-08T12:51:13;2.45;;;1.42;;
76194;SDS011;64964;48.694;21.206;2023-10-08T12:53:39;3.40;;;1.40;;
76194;SDS011;64964;48.694;21.206;2023-10-08T12:56:08;2.37;;;1.20;;
76194;SDS011;64964;48.694;21.206;2023-10-08T12:58:40;19.20;;;3.85;;
76194;SDS011;64964;48.694;21.206;2023-10-08T13:01:09;4.35;;;1.50;;
76194;SDS011;64964;48.694;21.206;2023-10-08T13:03:39;4.05;;;1.70;;
76194;SDS011;64964;48.694;21.206;2023-10-08T13:06:09;4.03;;;1.60;;
76194;SDS011;64964;48.694;21.206;2023-10-08T13:08:40;3.00;;;1.70;;
76194;SDS011;64964;48.694;21.206;2023-10-08T13:11:06;2.80;;;1.60;;
76194;SDS011;64964;48.694;21.206;2023-10-08T13:13:31;3.53;;;1.80;;
76194;SDS011;64964;48.694;21.206;2023-10-08T13:15:57;3.23;;;1.63;;
76194;SDS011;64964;48.694;21.206;2023-10-08T13:18:27;3.00;;;1.50;;
76194;SDS011;64964;48.694;21.206;2023-10-08T13:20:53;3.58;;;1.77;;
76194;SDS011;64964;48.694;21.206;2023-10-08T13:23:19;3.63;;;1.93;;
76194;SDS011;64964;48.694;21.206;2023-10-08T13:25:48;3.38;;;1.40;;
76194;SDS011;64964;48.694;21.206;2023-10-08T13:28:19;3.17;;;1.40;;
76194;SDS011;64964;48.694;21.206;2023-10-08T13:30:51;2.45;;;1.58;;
76194;SDS011;64964;48.694;21.206;2023-10-08T13:33:22;2.45;;;1.58;;
76194;SDS011;64964;48.694;21.206;2023-10-08T13:35:48;6.50;;;1.60;;
76194;SDS011;64964;48.694;21.206;2023-10-08T13:38:19;3.47;;;1.70;;
76194;SDS011;64964;48.694;21.206;2023-10-08T13:40:46;2.05;;;1.35;;
76194;SDS011;64964;48.694;21.206;2023-10-08T13:43:33;2.53;;;1.58;;
76194;SDS011;64964;48.694;21.206;2023-10-08T13:46:00;2.97;;;1.60;;
76194;SDS011;64964;48.694;21.206;2023-10-08T13:48:41;4.03;;;1.70;;
76194;SDS011;64964;48.694;21.206;2023-10-08T13:51:11;3.70;;;1.50;;
76194;SDS011;64964;48.694;21.206;2023-10-08T13:53:40;3.05;;;1.60;;
76194;SDS011;64964;48.694;21.206;2023-10-08T13:56:10;2.97;;;1.52;;
76194;SDS011;64964;48.694;21.206;2023-10-08T13:58:36;3.13;;;1.40;;
76194;SDS011;64964;48.694;21.206;2023-10-08T14:01:06;2.53;;;1.37;;
76194;SDS011;64964;48.694;21.206;2023-10-08T14:03:46;2.85;;;1.42;;
76194;SDS011;64964;48.694;21.206;2023-10-08T14:06:20;3.78;;;1.48;;
76194;SDS011;64964;48.694;21.206;2023-10-08T14:08:47;2.55;;;1.48;;
76194;SDS011;64964;48.694;21.206;2023-10-08T14:11:20;3.72;;;1.55;;
76194;SDS011;64964;48.694;21.206;2023-10-08T14:13:52;2.33;;;1.80;;
76194;SDS011;64964;48.694;21.206;2023-10-08T14:16:18;2.72;;;1.40;;
76194;SDS011;64964;48.694;21.206;2023-10-08T14:18:48;2.30;;;1.40;;
76194;SDS011;64964;48.694;21.206;2023-10-08T14:21:18;3.25;;;1.40;;
76194;SDS011;64964;48.694;21.206;2023-10-08T14:23:48;2.78;;;1.30;;
76194;SDS011;64964;48.694;21.206;2023-10-08T14:26:14;1.43;;;1.23;;
76194;SDS011;64964;48.694;21.206;2023-10-08T14:28:40;2.70;;;1.55;;
76194;SDS011;64964;48.694;21.206;2023-10-08T14:31:09;3.03;;;1.30;;
76194;SDS011;64964;48.694;21.206;2023-10-08T14:33:41;3.05;;;1.40;;
76194;SDS011;64964;48.694;21.206;2023-10-08T14:36:09;4.65;;;1.60;;
76194;SDS011;64964;48.694;21.206;2023-10-08T14:38:53;2.13;;;1.40;;
76194;SDS011;64964;48.694;21.206;2023-10-08T14:41:37;3.10;;;1.70;;
76194;SDS011;64964;48.694;21.206;2023-10-08T14:44:20;3.60;;;1.63;;
76194;SDS011;64964;48.694;21.206;2023-10-08T14:46:46;3.47;;;1.33;;
76194;SDS011;64964;48.694;21.206;2023-10-08T14:49:11;3.63;;;1.50;;
76194;SDS011;64964;48.694;21.206;2023-10-08T14:51:37;3.23;;;1.30;;
76194;SDS011;64964;48.694;21.206;2023-10-08T14:54:05;1.92;;;1.40;;
76194;SDS011;64964;48.694;21.206;2023-10-08T14:56:33;1.85;;;1.20;;
76194;SDS011;64964;48.694;21.206;2023-10-08T14:59:00;2.60;;;1.33;;
76194;SDS011;64964;48.694;21.206;2023-10-08T15:01:26;3.00;;;1.45;;
76194;SDS011;64964;48.694;21.206;2023-10-08T15:03:53;2.08;;;1.33;;